Airport ID:CYTF
Update Time (UTC):26/07/2021 21:52
Wind Speed (Knots):4
Wind Direction (Magnetic):270
Temperature (°C):20.1
Dew Point (°C):17.5
Humidity (%):85
Altimeter (inHg):29.77
Density Altitude (Feet):01600
Visibility (Miles):6
Clouds (Hundreds of feet):SCT060 SCT075 SCT090
Present Weather:-DZ
METAR:METAR CYTF 262200Z AUTO 23004KT 7SM -DZ SCT060 SCT075 SCT090 20/17 A2976

The data displayed is for advisory purposes only and is not to be used for flight planning or operations.

This page is not automatically refreshed. Reload the page to see current data.